createdAt,value
2023-07-23T00:02:12.016Z,1.85
2023-07-23T00:04:38.815Z,1.67
2023-07-23T00:07:05.688Z,1.70
2023-07-23T00:09:32.372Z,1.60
2023-07-23T00:11:59.284Z,1.80
2023-07-23T00:14:26.004Z,1.73
2023-07-23T00:16:52.957Z,1.90
2023-07-23T00:19:19.650Z,1.80
2023-07-23T00:21:46.562Z,1.60
2023-07-23T00:24:13.288Z,1.70
2023-07-23T00:26:40.219Z,1.77
2023-07-23T00:29:06.932Z,1.80
2023-07-23T00:31:33.666Z,2.00
2023-07-23T00:34:00.399Z,1.80
2023-07-23T00:36:27.110Z,1.80
2023-07-23T00:38:53.822Z,1.88
2023-07-23T00:41:20.771Z,1.83
2023-07-23T00:43:47.503Z,1.92
2023-07-23T00:46:14.257Z,1.83
2023-07-23T00:48:40.974Z,1.85
2023-07-23T00:51:07.687Z,1.73
2023-07-23T00:53:34.946Z,1.60
2023-07-23T00:56:01.653Z,1.75
2023-07-23T00:58:28.573Z,1.73
2023-07-23T01:00:55.318Z,1.73
2023-07-23T01:03:22.324Z,1.90
2023-07-23T01:05:49.039Z,2.00
2023-07-23T01:08:15.745Z,1.80
2023-07-23T01:10:42.688Z,1.83
2023-07-23T01:13:09.389Z,1.70
2023-07-23T01:15:36.153Z,1.70
2023-07-23T01:18:03.002Z,1.77
2023-07-23T01:20:29.956Z,1.98
2023-07-23T01:22:56.658Z,1.83
2023-07-23T01:25:23.362Z,1.95
2023-07-23T01:27:50.081Z,2.00
2023-07-23T01:30:16.813Z,1.70
2023-07-23T01:32:43.818Z,2.28
2023-07-23T01:35:10.512Z,1.90
2023-07-23T01:37:37.439Z,2.20
2023-07-23T01:40:04.151Z,2.10
2023-07-23T01:42:30.831Z,1.80
2023-07-23T01:44:57.517Z,1.92
2023-07-23T01:47:24.915Z,1.87
2023-07-23T01:49:51.984Z,2.33
2023-07-23T01:52:18.718Z,1.70
2023-07-23T01:54:45.427Z,2.10
2023-07-23T01:57:12.164Z,2.08
2023-07-23T01:59:38.902Z,2.10
2023-07-23T02:02:05.721Z,2.00
2023-07-23T02:04:32.496Z,1.95
2023-07-23T02:06:59.229Z,2.17
2023-07-23T02:09:25.957Z,2.10
2023-07-23T02:11:52.726Z,1.87
2023-07-23T02:14:19.604Z,1.70
2023-07-23T02:16:46.385Z,1.90
2023-07-23T02:19:13.150Z,2.00
2023-07-23T02:21:40.091Z,1.90
2023-07-23T02:24:07.043Z,2.10
2023-07-23T02:26:34.015Z,1.88
2023-07-23T02:29:00.980Z,1.85
2023-07-23T02:31:27.965Z,1.92
2023-07-23T02:33:54.912Z,1.83
2023-07-23T02:36:21.692Z,1.90
2023-07-23T02:38:48.644Z,2.00
2023-07-23T02:41:15.577Z,2.05
2023-07-23T02:43:42.292Z,1.90
2023-07-23T02:46:09.290Z,1.88
2023-07-23T02:48:36.263Z,1.90
2023-07-23T02:51:03.017Z,1.80
2023-07-23T02:53:29.985Z,2.25
2023-07-23T02:55:56.735Z,2.00
2023-07-23T02:58:23.480Z,1.80
2023-07-23T03:00:50.430Z,1.93
2023-07-23T03:03:17.240Z,2.00
2023-07-23T03:05:44.018Z,1.73
2023-07-23T03:08:10.813Z,2.20
2023-07-23T03:10:37.761Z,1.83
2023-07-23T03:13:04.486Z,1.80
2023-07-23T03:15:31.232Z,2.05
2023-07-23T03:17:58.211Z,1.90
2023-07-23T03:20:25.180Z,1.90
2023-07-23T03:22:51.921Z,1.85
2023-07-23T03:25:18.877Z,2.00
2023-07-23T03:27:45.649Z,1.90
2023-07-23T03:30:12.382Z,1.90
2023-07-23T03:32:39.126Z,2.00
2023-07-23T03:35:05.884Z,1.80
2023-07-23T03:37:32.623Z,1.73
2023-07-23T03:39:59.361Z,2.00
2023-07-23T03:42:26.312Z,1.80
2023-07-23T03:44:53.051Z,1.80
2023-07-23T03:47:19.915Z,2.00
2023-07-23T03:49:46.681Z,2.00
2023-07-23T03:52:13.614Z,2.15
2023-07-23T03:54:40.349Z,1.98
2023-07-23T03:57:07.052Z,2.15
2023-07-23T03:59:33.779Z,1.85
2023-07-23T04:02:00.761Z,2.40
2023-07-23T04:04:27.510Z,2.08
2023-07-23T04:06:54.535Z,2.17
2023-07-23T04:09:21.285Z,2.15
2023-07-23T04:11:48.016Z,1.92
2023-07-23T04:14:14.736Z,2.00
2023-07-23T04:16:41.483Z,2.17
2023-07-23T04:19:08.225Z,1.70
2023-07-23T04:21:34.941Z,1.92
2023-07-23T04:24:01.642Z,1.88
2023-07-23T04:26:28.367Z,2.00
2023-07-23T04:28:55.098Z,1.90
2023-07-23T04:31:21.871Z,1.85
2023-07-23T04:33:48.601Z,2.10
2023-07-23T04:36:15.558Z,1.90
2023-07-23T04:38:42.669Z,1.80
2023-07-23T04:41:09.395Z,2.00
2023-07-23T04:43:36.147Z,2.00
2023-07-23T04:46:02.925Z,1.90
2023-07-23T04:48:29.910Z,1.80
2023-07-23T04:50:56.650Z,1.83
2023-07-23T04:53:23.730Z,1.70
2023-07-23T04:55:50.443Z,1.80
2023-07-23T04:58:17.168Z,1.90
2023-07-23T05:00:43.889Z,1.90
2023-07-23T05:03:10.709Z,1.70
2023-07-23T05:05:37.482Z,2.00
2023-07-23T05:08:04.763Z,1.90
2023-07-23T05:10:31.510Z,2.00
2023-07-23T05:12:58.239Z,1.90
2023-07-23T05:15:25.163Z,1.83
2023-07-23T05:17:52.172Z,1.90
2023-07-23T05:20:18.933Z,1.85
2023-07-23T05:22:45.657Z,1.80
2023-07-23T05:25:12.379Z,1.90
2023-07-23T05:27:39.849Z,1.83
2023-07-23T05:30:06.752Z,1.85
2023-07-23T05:32:33.521Z,1.70
2023-07-23T05:35:00.270Z,1.65
2023-07-23T05:37:27.008Z,1.80
2023-07-23T05:39:53.726Z,1.90
2023-07-23T05:42:20.446Z,1.63
2023-07-23T05:44:47.180Z,1.92
2023-07-23T05:47:13.913Z,1.80
2023-07-23T05:49:40.851Z,1.90
2023-07-23T05:52:07.549Z,1.70
2023-07-23T05:54:34.278Z,1.60
2023-07-23T05:57:01.259Z,1.70
2023-07-23T05:59:28.039Z,1.70
2023-07-23T06:01:54.766Z,1.90
2023-07-23T06:04:21.557Z,1.57
2023-07-23T06:06:48.331Z,1.73
2023-07-23T06:09:15.089Z,1.80
2023-07-23T06:11:41.810Z,1.50
2023-07-23T06:14:08.583Z,1.60
2023-07-23T06:16:35.327Z,1.60
2023-07-23T06:19:02.070Z,1.63
2023-07-23T06:21:28.950Z,1.63
2023-07-23T06:23:55.837Z,1.70
2023-07-23T06:26:22.618Z,1.60
2023-07-23T06:28:49.367Z,1.47
2023-07-23T06:31:16.188Z,1.58
2023-07-23T06:33:43.162Z,1.70
2023-07-23T06:36:09.935Z,1.67
2023-07-23T06:38:36.641Z,1.80
2023-07-23T06:41:03.372Z,1.80
2023-07-23T06:43:30.070Z,1.90
2023-07-23T06:45:56.792Z,2.05
2023-07-23T06:48:23.521Z,1.80
2023-07-23T06:50:50.255Z,1.90
2023-07-23T06:53:16.997Z,1.97
2023-07-23T06:55:43.782Z,1.77
2023-07-23T06:58:10.540Z,1.77
2023-07-23T07:00:37.270Z,1.88
2023-07-23T07:03:04.043Z,1.70
2023-07-23T07:05:30.851Z,1.93
2023-07-23T07:07:57.583Z,2.00
2023-07-23T07:10:24.334Z,2.10
2023-07-23T07:12:51.047Z,2.17
2023-07-23T07:15:17.773Z,1.88
2023-07-23T07:17:44.520Z,1.93
2023-07-23T07:20:11.491Z,1.98
2023-07-23T07:22:38.245Z,1.98
2023-07-23T07:25:04.995Z,1.90
2023-07-23T07:27:31.956Z,2.20
2023-07-23T07:30:01.010Z,2.00
2023-07-23T07:32:28.393Z,2.05
2023-07-23T07:34:55.139Z,2.38
2023-07-23T07:37:23.415Z,1.92
2023-07-23T07:39:50.180Z,2.00
2023-07-23T07:42:16.889Z,1.70
2023-07-23T07:44:43.592Z,2.10
2023-07-23T07:47:10.305Z,1.70
2023-07-23T07:49:37.102Z,1.80
2023-07-23T07:52:03.840Z,2.00
2023-07-23T07:54:30.564Z,2.33
2023-07-23T07:56:57.492Z,1.73
2023-07-23T07:59:24.225Z,1.80
2023-07-23T08:01:50.957Z,1.95
2023-07-23T08:04:17.842Z,1.85
2023-07-23T08:06:44.710Z,1.60
2023-07-23T08:09:11.433Z,1.83
2023-07-23T08:11:38.363Z,1.98
2023-07-23T08:14:05.123Z,1.80
2023-07-23T08:16:32.100Z,1.80
2023-07-23T08:18:59.004Z,1.57
2023-07-23T08:21:25.892Z,1.60
2023-07-23T08:23:53.055Z,1.77
2023-07-23T08:26:19.804Z,1.60
2023-07-23T08:28:46.548Z,1.85
2023-07-23T08:31:13.323Z,1.97
2023-07-23T08:33:40.153Z,1.70
2023-07-23T08:36:06.945Z,1.70
2023-07-23T08:38:33.694Z,1.60
2023-07-23T08:41:00.411Z,1.67
2023-07-23T08:43:27.146Z,1.90
2023-07-23T08:45:53.901Z,1.80
2023-07-23T08:48:20.656Z,1.98
2023-07-23T08:50:47.412Z,1.90
2023-07-23T08:53:14.130Z,1.70
2023-07-23T08:55:40.848Z,1.67
2023-07-23T08:58:07.581Z,1.70
2023-07-23T09:00:34.299Z,1.75
2023-07-23T09:03:01.018Z,1.60
2023-07-23T09:05:27.776Z,1.55
2023-07-23T09:07:56.750Z,1.57
2023-07-23T09:10:24.377Z,1.80
2023-07-23T09:12:51.115Z,1.42
2023-07-23T09:15:17.857Z,1.50
2023-07-23T09:17:44.643Z,1.50
2023-07-23T09:20:11.432Z,1.57
2023-07-23T09:22:38.170Z,1.80
2023-07-23T09:25:04.917Z,1.80
2023-07-23T09:27:31.646Z,2.00
2023-07-23T09:29:58.363Z,1.88
2023-07-23T09:32:25.202Z,1.83
2023-07-23T09:34:52.160Z,1.73
2023-07-23T09:37:18.886Z,1.90
2023-07-23T09:39:45.598Z,1.92
2023-07-23T09:42:12.314Z,1.83
2023-07-23T09:44:39.291Z,1.90
2023-07-23T09:47:06.020Z,1.98
2023-07-23T09:49:32.807Z,1.85
2023-07-23T09:51:59.531Z,1.52
2023-07-23T09:54:26.288Z,2.00
2023-07-23T09:56:53.236Z,1.70
2023-07-23T09:59:19.990Z,1.40
2023-07-23T10:01:46.744Z,1.80
2023-07-23T10:04:13.478Z,1.50
2023-07-23T10:06:40.220Z,1.98
2023-07-23T10:09:07.219Z,1.60
2023-07-23T10:11:34.009Z,1.77
2023-07-23T10:14:00.945Z,1.70
2023-07-23T10:16:27.681Z,2.10
2023-07-23T10:18:54.655Z,1.60
2023-07-23T10:21:21.370Z,1.80
2023-07-23T10:23:48.096Z,1.95
2023-07-23T10:26:14.854Z,1.70
2023-07-23T10:28:41.579Z,1.80
2023-07-23T10:31:08.316Z,1.67
2023-07-23T10:33:35.071Z,2.03
2023-07-23T10:36:01.823Z,1.60
2023-07-23T10:38:28.540Z,1.98
2023-07-23T10:40:55.505Z,1.85
2023-07-23T10:43:22.242Z,1.80
2023-07-23T10:45:48.970Z,1.67
2023-07-23T10:48:15.693Z,1.48
2023-07-23T10:50:42.433Z,1.70
2023-07-23T10:53:09.169Z,1.60
2023-07-23T10:55:35.946Z,1.60
2023-07-23T10:58:02.711Z,1.77
2023-07-23T11:00:29.471Z,1.80
2023-07-23T11:02:56.273Z,1.60
2023-07-23T11:05:23.039Z,1.70
2023-07-23T11:07:49.770Z,1.83
2023-07-23T11:10:16.498Z,1.43
2023-07-23T11:12:43.224Z,1.60
2023-07-23T11:15:09.946Z,1.95
2023-07-23T11:17:36.716Z,1.40
2023-07-23T11:20:03.482Z,1.90
2023-07-23T11:22:30.204Z,1.63
2023-07-23T11:24:56.972Z,1.80
2023-07-23T11:27:23.739Z,1.60
2023-07-23T11:29:50.468Z,1.70
2023-07-23T11:32:17.206Z,1.75
2023-07-23T11:34:43.938Z,1.90
2023-07-23T11:37:10.907Z,1.88
2023-07-23T11:39:37.646Z,1.63
2023-07-23T11:42:04.431Z,1.60
2023-07-23T11:44:31.180Z,1.50
2023-07-23T11:46:57.916Z,1.50
2023-07-23T11:49:24.876Z,1.52
2023-07-23T11:51:51.592Z,1.98
2023-07-23T11:54:18.312Z,1.48
2023-07-23T11:56:45.020Z,1.40
2023-07-23T11:59:11.743Z,1.70
2023-07-23T12:01:38.681Z,1.80
2023-07-23T12:04:05.597Z,1.50
2023-07-23T12:06:32.574Z,1.42
2023-07-23T12:08:59.443Z,1.50
2023-07-23T12:11:26.357Z,1.90
2023-07-23T12:13:53.107Z,1.70
2023-07-23T12:16:19.871Z,1.77
2023-07-23T12:18:49.996Z,1.60
2023-07-23T12:21:17.202Z,2.08
2023-07-23T12:23:43.939Z,1.63
2023-07-23T12:26:10.687Z,1.65
2023-07-23T12:28:37.449Z,1.83
2023-07-23T12:31:04.210Z,1.83
2023-07-23T12:33:30.959Z,1.90
2023-07-23T12:35:57.681Z,2.30
2023-07-23T12:38:24.388Z,1.98
2023-07-23T12:40:51.189Z,2.10
2023-07-23T12:43:17.905Z,2.05
2023-07-23T12:45:44.674Z,2.10
2023-07-23T12:48:11.638Z,2.23
2023-07-23T12:50:38.362Z,1.90
2023-07-23T12:53:05.084Z,1.98
2023-07-23T12:55:31.883Z,1.88
2023-07-23T12:57:58.626Z,2.00
2023-07-23T13:00:25.327Z,1.80
2023-07-23T13:02:52.034Z,1.88
2023-07-23T13:05:18.790Z,2.08
2023-07-23T13:07:45.515Z,2.30
2023-07-23T13:10:12.232Z,2.10
2023-07-23T13:12:39.183Z,1.90
2023-07-23T13:15:07.225Z,1.80
2023-07-23T13:17:35.789Z,2.03
2023-07-23T13:20:02.540Z,1.80
2023-07-23T13:22:29.340Z,2.03
2023-07-23T13:24:56.125Z,2.20
2023-07-23T13:27:22.863Z,2.00
2023-07-23T13:29:49.589Z,2.00
2023-07-23T13:32:16.363Z,1.90
2023-07-23T13:34:43.117Z,2.38
2023-07-23T13:37:09.825Z,2.03
2023-07-23T13:39:36.771Z,1.90
2023-07-23T13:42:03.512Z,2.10
2023-07-23T13:44:30.246Z,2.10
2023-07-23T13:46:57.011Z,2.20
2023-07-23T13:49:23.728Z,2.20
2023-07-23T13:51:50.511Z,2.10
2023-07-23T13:54:17.230Z,2.10
2023-07-23T13:56:43.963Z,2.22
2023-07-23T13:59:10.702Z,2.20
2023-07-23T14:01:37.435Z,2.03
2023-07-23T14:04:04.424Z,2.00
2023-07-23T14:06:31.393Z,2.10
2023-07-23T14:08:58.473Z,1.80
2023-07-23T14:11:25.303Z,2.30
2023-07-23T14:13:52.069Z,2.00
2023-07-23T14:16:18.962Z,2.10
2023-07-23T14:18:45.757Z,1.98
2023-07-23T14:21:12.537Z,2.17
2023-07-23T14:23:39.464Z,2.13
2023-07-23T14:26:06.415Z,2.20
2023-07-23T14:28:33.159Z,2.00
2023-07-23T14:30:59.967Z,2.20
2023-07-23T14:33:26.755Z,2.00
2023-07-23T14:35:53.470Z,1.80
2023-07-23T14:38:20.243Z,1.90
2023-07-23T14:40:46.956Z,1.83
2023-07-23T14:43:13.924Z,2.00
2023-07-23T14:45:40.665Z,2.50
2023-07-23T14:48:07.462Z,2.13
2023-07-23T14:50:34.215Z,2.33
2023-07-23T14:53:00.941Z,1.98
2023-07-23T14:55:29.015Z,2.00
2023-07-23T14:57:56.094Z,1.90
2023-07-23T15:00:22.838Z,1.90
2023-07-23T15:02:49.634Z,2.20
2023-07-23T15:05:16.645Z,2.05
2023-07-23T15:07:43.409Z,2.22
2023-07-23T15:10:10.158Z,2.38
2023-07-23T15:12:36.877Z,1.80
2023-07-23T15:15:03.631Z,1.80
2023-07-23T15:17:30.395Z,2.05
2023-07-23T15:19:57.119Z,1.67
2023-07-23T15:22:23.860Z,1.98
2023-07-23T15:24:50.644Z,1.67
2023-07-23T15:27:17.675Z,2.10
2023-07-23T15:29:44.414Z,2.00
2023-07-23T15:32:11.175Z,2.05
2023-07-23T15:34:37.889Z,1.90
2023-07-23T15:37:04.649Z,2.08
2023-07-23T15:39:31.603Z,1.90
2023-07-23T15:41:58.448Z,2.00
2023-07-23T15:44:25.180Z,1.83
2023-07-23T15:46:51.913Z,1.90
2023-07-23T15:49:18.650Z,2.15
2023-07-23T15:51:45.371Z,2.00
2023-07-23T15:54:12.132Z,2.28
2023-07-23T15:56:39.831Z,2.30
2023-07-23T15:59:06.553Z,1.80
2023-07-23T16:01:33.438Z,2.15
2023-07-23T16:04:00.344Z,2.00
2023-07-23T16:06:27.092Z,2.05
2023-07-23T16:08:54.065Z,1.85
2023-07-23T16:11:20.780Z,2.30
2023-07-23T16:13:47.514Z,2.13
2023-07-23T16:16:14.306Z,2.40
2023-07-23T16:18:41.144Z,2.35
2023-07-23T16:21:07.902Z,2.20
2023-07-23T16:23:34.622Z,2.00
2023-07-23T16:26:01.362Z,2.17
2023-07-23T16:28:28.095Z,2.00
2023-07-23T16:30:54.891Z,2.47
2023-07-23T16:33:21.680Z,2.30
2023-07-23T16:35:48.436Z,2.15
2023-07-23T16:38:15.418Z,2.10
2023-07-23T16:40:42.416Z,1.93
2023-07-23T16:43:09.148Z,2.17
2023-07-23T16:45:36.556Z,2.03
2023-07-23T16:48:03.452Z,2.30
2023-07-23T16:50:30.167Z,2.05
2023-07-23T16:52:57.126Z,2.20
2023-07-23T16:55:23.993Z,2.17
2023-07-23T16:57:50.750Z,2.15
2023-07-23T17:00:17.474Z,2.03
2023-07-23T17:02:44.538Z,1.90
2023-07-23T17:05:11.353Z,2.30
2023-07-23T17:07:38.303Z,2.38
2023-07-23T17:10:05.039Z,2.40
2023-07-23T17:12:32.029Z,2.33
2023-07-23T17:14:58.907Z,2.20
2023-07-23T17:17:25.680Z,2.23
2023-07-23T17:19:52.496Z,2.22
2023-07-23T17:22:19.201Z,2.22
2023-07-23T17:24:46.189Z,2.13
2023-07-23T17:27:13.113Z,2.28
2023-07-23T17:29:39.853Z,2.10
2023-07-23T17:32:06.580Z,2.45
2023-07-23T17:34:33.538Z,2.17
2023-07-23T17:37:00.405Z,2.50
2023-07-23T17:39:28.735Z,2.53
2023-07-23T17:41:55.615Z,2.37
2023-07-23T17:44:22.353Z,2.00
2023-07-23T17:46:49.181Z,2.50
2023-07-23T17:49:16.312Z,2.30
2023-07-23T17:51:43.132Z,2.33
2023-07-23T17:54:09.825Z,2.30
2023-07-23T17:56:36.544Z,2.17
2023-07-23T17:59:03.274Z,2.38
2023-07-23T18:01:31.530Z,2.10
2023-07-23T18:03:59.137Z,2.25
2023-07-23T18:06:25.996Z,2.37
2023-07-23T18:08:52.727Z,2.50
2023-07-23T18:11:19.859Z,2.40
2023-07-23T18:13:46.587Z,2.20
2023-07-23T18:16:13.530Z,2.45
2023-07-23T18:18:40.303Z,3.03
2023-07-23T18:21:07.050Z,3.45
2023-07-23T18:23:33.789Z,3.83
2023-07-23T18:26:05.945Z,4.35
2023-07-23T18:28:33.515Z,4.18
2023-07-23T18:31:00.322Z,3.73
2023-07-23T18:33:27.192Z,4.10
2023-07-23T18:35:53.941Z,4.35
2023-07-23T18:38:20.881Z,4.47
2023-07-23T18:40:47.593Z,4.40
2023-07-23T18:43:14.315Z,4.17
2023-07-23T18:45:41.060Z,4.28
2023-07-23T18:48:07.805Z,4.00
2023-07-23T18:50:34.569Z,4.22
2023-07-23T18:53:01.360Z,4.20
2023-07-23T18:55:28.088Z,4.30
2023-07-23T18:57:55.019Z,4.10
2023-07-23T19:00:21.727Z,4.20
2023-07-23T19:02:48.720Z,3.88
2023-07-23T19:05:16.106Z,4.72
2023-07-23T19:07:43.124Z,4.30
2023-07-23T19:10:09.845Z,3.80
2023-07-23T19:12:36.796Z,4.47
2023-07-23T19:15:04.123Z,4.10
2023-07-23T19:17:30.951Z,4.22
2023-07-23T19:19:57.678Z,3.83
2023-07-23T19:22:24.372Z,4.20
2023-07-23T19:24:51.166Z,3.78
2023-07-23T19:30:05.822Z,4.18
2023-07-23T19:32:32.585Z,3.83
2023-07-23T19:34:59.420Z,4.22
2023-07-23T19:37:26.128Z,3.90
2023-07-23T19:39:52.855Z,4.40
2023-07-23T19:42:19.595Z,3.90
2023-07-23T19:44:46.581Z,3.63
2023-07-23T19:47:13.313Z,3.80
2023-07-23T19:49:40.048Z,4.18
2023-07-23T19:52:06.801Z,4.22
2023-07-23T19:54:33.522Z,4.10
2023-07-23T19:57:00.258Z,4.10
2023-07-23T19:59:27.009Z,3.85
2023-07-23T20:01:53.948Z,4.40
2023-07-23T20:04:20.690Z,4.10
2023-07-23T20:06:47.534Z,4.10
2023-07-23T20:09:14.277Z,4.00
2023-07-23T20:11:41.010Z,3.83
2023-07-23T20:14:07.717Z,4.57
2023-07-23T20:16:34.848Z,4.18
2023-07-23T20:19:01.966Z,4.78
2023-07-23T20:21:38.316Z,4.30
2023-07-23T20:24:10.477Z,4.03
2023-07-23T20:26:37.236Z,4.07
2023-07-23T20:29:03.941Z,4.22
2023-07-23T20:31:30.643Z,4.05
2023-07-23T20:33:57.335Z,3.73
2023-07-23T20:36:24.051Z,4.00
2023-07-23T20:38:50.771Z,4.32
2023-07-23T20:41:17.710Z,4.18
2023-07-23T20:43:44.406Z,4.28
2023-07-23T20:46:11.170Z,3.97
2023-07-23T20:48:37.920Z,4.15
2023-07-23T20:51:04.674Z,4.30
2023-07-23T20:53:31.417Z,4.40
2023-07-23T20:55:58.158Z,4.03
2023-07-23T20:58:25.118Z,4.00
2023-07-23T21:00:51.921Z,3.90
2023-07-23T21:03:18.911Z,4.70
2023-07-23T21:05:45.651Z,4.30
2023-07-23T21:08:12.374Z,4.30
2023-07-23T21:10:39.128Z,3.80
2023-07-23T21:13:05.857Z,4.40
2023-07-23T21:15:33.344Z,4.18
2023-07-23T21:18:00.267Z,4.22
2023-07-23T21:20:27.144Z,4.25
2023-07-23T21:22:53.843Z,4.20
2023-07-23T21:25:20.858Z,4.22
2023-07-23T21:27:47.637Z,3.95
2023-07-23T21:30:14.411Z,3.97
2023-07-23T21:32:41.185Z,3.97
2023-07-23T21:35:07.910Z,3.80
2023-07-23T21:37:34.854Z,3.95
2023-07-23T21:40:01.607Z,4.07
2023-07-23T21:42:28.353Z,3.92
2023-07-23T21:44:55.080Z,3.72
2023-07-23T21:47:21.847Z,3.80
2023-07-23T21:49:48.817Z,4.00
2023-07-23T21:52:15.516Z,4.32
2023-07-23T21:54:42.221Z,3.90
2023-07-23T21:57:09.120Z,3.90
2023-07-23T21:59:35.896Z,4.20
2023-07-23T22:02:02.653Z,4.10
2023-07-23T22:04:29.375Z,4.00
2023-07-23T22:06:56.349Z,4.50
2023-07-23T22:09:23.216Z,4.15
2023-07-23T22:11:49.920Z,4.10
2023-07-23T22:14:16.626Z,4.15
2023-07-23T22:16:43.430Z,3.80
2023-07-23T22:19:10.428Z,4.10
2023-07-23T22:21:37.163Z,4.40
2023-07-23T22:24:03.891Z,3.87
2023-07-23T22:26:30.824Z,4.47
2023-07-23T22:28:57.876Z,3.88
2023-07-23T22:31:24.644Z,4.07
2023-07-23T22:33:51.378Z,4.00
2023-07-23T22:36:18.319Z,3.80
2023-07-23T22:38:45.042Z,4.05
2023-07-23T22:41:11.767Z,3.90
2023-07-23T22:43:41.287Z,4.15
2023-07-23T22:46:14.705Z,4.60
2023-07-23T22:51:08.588Z,4.13
2023-07-23T22:53:35.549Z,4.15
2023-07-23T22:56:02.293Z,4.28
2023-07-23T22:58:29.027Z,4.00
2023-07-23T23:00:55.782Z,3.90
2023-07-23T23:03:22.581Z,3.70
2023-07-23T23:05:49.401Z,4.18
2023-07-23T23:08:16.134Z,4.00
2023-07-23T23:10:43.085Z,4.32
2023-07-23T23:13:09.824Z,4.40
2023-07-23T23:15:36.878Z,3.97
2023-07-23T23:18:03.631Z,4.10
2023-07-23T23:20:30.365Z,4.15
2023-07-23T23:22:57.095Z,4.20
2023-07-23T23:25:23.829Z,3.97
2023-07-23T23:27:50.567Z,4.30
2023-07-23T23:30:17.299Z,4.35
2023-07-23T23:32:44.088Z,4.10
2023-07-23T23:35:10.834Z,4.40
2023-07-23T23:37:37.557Z,4.30
2023-07-23T23:40:04.277Z,4.78
2023-07-23T23:42:31.016Z,4.80
2023-07-23T23:44:57.758Z,4.82
2023-07-23T23:47:24.467Z,4.80
2023-07-23T23:49:51.196Z,4.43
2023-07-23T23:52:17.925Z,4.20
2023-07-23T23:54:44.661Z,4.63
2023-07-23T23:57:11.400Z,4.80
2023-07-23T23:59:38.158Z,4.63
